AirNav   Pilot Hours Calculator
 
 1545 users online  

MU97
(formerly 4K3)
Lexington Municipal Airport
Lexington, Missouri, USA

GOING TO LEXINGTON?


FAA INFORMATION EFFECTIVE 03 NOVEMBER 2022

Location

FAA Identifier: MU97
Lat/Long: 39-12-35.6000N 093-55-39.8000W
39-12.593333N 093-55.663333W
39.2098889,-93.9277222
(estimated)
Elevation: 691 ft. / 210.6 m (surveyed)
Variation: 04E (1985)
From city: 3 miles NW of LEXINGTON, MO
Time zone: UTC -6 (UTC -5 during Daylight Saving Time)
Zip code: 64036

Airport Operations

Airport use: Private use. Permission required prior to landing
Activation date: 12/1945
Control tower: no
ARTCC: KANSAS CITY CENTER
FSS: COLUMBIA FLIGHT SERVICE STATION
Attendance: IRREGULAR 24 HOURS/DAY
Wind indicator: yes
Segmented circle: no

Airport Communications

CTAF/UNICOM: 122.7
WX AWOS-3T at GPH (19 nm NW): 120.275 (816-407-3399)
  • APCH/DEP SVC PRVDD BY KANSAS CITY ARTCC ON FREQS 135.575/323.15 (KNOB NOSTER RCAG).

Nearby radio navigation aids

VOR radial/distance  VOR name  Freq  Var
ANXr047/11.6NAPOLEON VORTAC114.0007E
BQSr183/25.4BRAYMER VOR/DME115.3503E
MCIr092/37.9KANSAS CITY VORTAC113.2505E

Airport Services

Parking: hangars and tiedowns
Bottled oxygen: NONE
Bulk oxygen: NONE

Runway Information

Runway 4/22

Dimensions: 2925 x 40 ft. / 892 x 12 m
Surface: asphalt, in fair condition
RWY 04/22 ROUGH, LARGE PITS IN SFC, CRACKS.
RUNWAY 4  RUNWAY 22
Latitude: 39-12.414867N39-12.770117N
Longitude: 093-55.818150W093-55.399750W
Elevation: 691.0 ft.689.0 ft.
Traffic pattern: leftleft
Runway heading: 038 magnetic, 042 true218 magnetic, 222 true
Touchdown point: yes, no lightsno, no lights
Obstructions: 14 ft. road, 325 ft. from runway, 130 ft. left and right of centerline, 8:1 slope to clearnone

Runway 13/31

Dimensions: 3100 x 125 ft. / 945 x 38 m
Surface: turf, in excellent condition
RUNWAY 13  RUNWAY 31
Latitude: 39-12.784217N39-12.415330N
Longitude: 093-55.819643W093-55.365503W
Elevation: 690.0 ft.690.0 ft.
Traffic pattern: leftleft
Runway heading: 132 magnetic, 136 true312 magnetic, 316 true
Obstructions: 29 ft. pline, marked, 330 ft. from runway, 150 ft. left and right of centerline, 11:1 slope to clear15 ft. road, 270 ft. from runway, 140 ft. left and right of centerline, 18:1 slope to clear

Runway 18/36

Dimensions: 2250 x 125 ft. / 686 x 38 m
Surface: turf, in excellent condition
RUNWAY 18  RUNWAY 36
Latitude: 39-12.769533N39-12.398467N
Longitude: 093-55.829917W093-55.829917W
Elevation: 690.0 ft.690.0 ft.
Traffic pattern: leftleft
Runway heading: 176 magnetic, 180 true356 magnetic, 000 true
Obstructions: none15 ft. road, 227 ft. from runway, 15:1 slope to clear

Airport Ownership and Management from official FAA records

Ownership: Privately-owned
Owner: DAVID EDWARDS
11215 GREAT CANADIAN LANE
RICHMOND, MO 64085
Phone (816) 752-5333
Manager: DAVID EDWARDS
11215 GREAT CANADIAN LANE
RICHMOND, MO 64085
Phone (816) 752-5333

Airport Operational Statistics

Aircraft based on the field: 2
Single engine airplanes: 2
  • ULTRALIGHT ACTIVITY & RADIO CONTROLLED AIRPLANES ON & INVOF ARPT.
    
Aircraft operations: avg 92/week *
58% local general aviation
31% transient general aviation
5% military
5% air taxi
* for 12-month period ending 31 December 2018

Additional Remarks

MIGRATORY BIRDS INVOF ARPT DURING SPRING AND FALL.
NTSD RWY SAFETY AREA RWY22; INCORRECT TERRAIN GRADES.
FOR CD CTC KANSAS CITY ARTCC AT 913-254-8508.

Instrument Procedures

There are no published instrument procedures at MU97.

Some nearby airports with instrument procedures:

KHIG - Higginsville Industrial Municipal Airport (14 nm SE)
3EX - Excelsior Springs Memorial Airport (15 nm NW)
3GV - East Kansas City Airport (18 nm SW)
KGPH - Midwest National Air Center Airport (19 nm NW)
KLXT - Lee's Summit Municipal Airport (26 nm SW)
 
Loc | Ops | Rwys | IFR | FBO | Links
Com | Nav | Svcs | Stats | Notes
Area around MU97 (Lexington Municipal Airport)
 
Road maps at: MapQuest Bing Google
 
Aerial photo
WARNING: Photo may not be current or correct
Aerial photo of MU97 (Lexington Municipal Airport)
Do you have a better or more recent aerial photo of Lexington Municipal Airport that you would like to share? If so, please send us your photo.

 
Sectional chart

 
Airport distance calculator
Flying to Lexington Municipal Airport? Find the distance to fly.

From to MU97

Sunrise and sunset
Times for 29-Nov-2022
 Local
(UTC-6)
 Zulu
(UTC)
Morning civil twilight06:4612:46
Sunrise07:1513:15
Sunset16:5322:53
Evening civil twilight17:2223:22

Current date and time
Zulu (UTC)  29-Nov-2022 18:51:21
Local (UTC-6)  29-Nov-2022 12:51:21
 
METAR
KGPH 
19nm NW 
291715Z AUTO 23019G23KT 10SM SCT037 15/05 A2947 RMK AO2
KLXT 
25nm SW 
291753Z AUTO 23020G32KT 10SM CLR 14/03 A2950 RMK AO2 PK WND 25038/1719 SLP988 T01390033 10156 20094 51015
KRCM 
26nm S 
291835Z AUTO 23019G26KT 10SM BKN039 16/06 A2950 RMK AO2
KMKC 
32nm W 
291754Z 26012G28KT 10SM CLR 13/03 A2950 RMK AO2 PK WND 26030/1721 SLP988 60000 T01330033 10156 20094 51021
KMHL 
34nm E 
291835Z AUTO 22013G27KT 10SM BKN040 BKN046 17/09 A2947 RMK AO2
KSZL 
35nm SE 
291755Z 22029G37KT 10SM BKN035 17/08 A2943 RMK AO2A PK WND 22038/05 SLP967 T01710082 10180 20118 57006 $
KEZZ 
35nm NW 
291835Z AUTO 29020G30KT 10SM BKN015 06/01 A2954 RMK AO2 T00570008
KGVW 
37nm SW 
291830Z AUTO 15016KT 2SM BR FEW019 OVC050 22/22 A2982 RMK A01
KMCI 
38nm W 
291815Z 30024G35KT 10SM BKN015 BKN055 04/00 A2955 RMK AO2 PK WND 30035/1815 T00440000
TAF
KMKC 
32nm W 
291728Z 2918/3018 29016G26KT P6SM BKN018 FM300100 32013G23KT P6SM SCT070 FM301200 30010KT P6SM SKC
KSZL 
35nm SE 
291706Z 2917/3017 22020G30KT 9999 BKN025 BKN200 540203 QNH2942INS TEMPO 2917/2919 23025G35KT OVC020 BECMG 2918/2919 23015G25KT 9999 OVC030 QNH2944INS TEMPO 2919/3003 25025G35KT OVC020 540203 BECMG 3003/3004 30015KT 9999 BKN030 620302 QNH2983INS TX16/2918Z TNM04/3011Z
KMCI 
38nm W 
291728Z 2918/3018 29015G25KT P6SM BKN018 FM300100 32014G24KT P6SM SCT070 FM301200 30010KT P6SM SKC
NOTAMs
Click for the latest NOTAMs
NOTAMs are issued by the DoD/FAA and will open in a separate window not controlled by AirNav.

 

 
 

Would you like to see your business listed on this page?

 If your business provides an interesting product or service to pilots, flight crews, aircraft, or users of the Lexington Municipal Airport, you should consider listing it here.  To start the listing process, click on the button below
 
Add a business
 

Other Pages about Lexington Municipal Airport

Update a link
 
Copyright © AirNav, LLC. All rights reserved. Privacy Policy  Contact